sensor_id;sensor_type;location;lat;lon;timestamp;pressure;altitude;pressure_sealevel;temperature;humidity
44765;BME280;30484;52.382;5.260;2023-01-27T00:01:53;102713.72;;;9.10;100.00
44765;BME280;30484;52.382;5.260;2023-01-27T00:04:21;102713.81;;;9.04;100.00
44765;BME280;30484;52.382;5.260;2023-01-27T00:06:50;102705.75;;;9.08;100.00
44765;BME280;30484;52.382;5.260;2023-01-27T00:09:18;102700.59;;;8.96;100.00
44765;BME280;30484;52.382;5.260;2023-01-27T00:11:48;102695.53;;;8.76;100.00
44765;BME280;30484;52.382;5.260;2023-01-27T00:14:34;102705.13;;;8.88;100.00
44765;BME280;30484;52.382;5.260;2023-01-27T00:17:03;102704.09;;;9.00;100.00
44765;BME280;30484;52.382;5.260;2023-01-27T00:19:31;102698.06;;;8.87;100.00
44765;BME280;30484;52.382;5.260;2023-01-27T00:21:59;102694.72;;;8.69;100.00
44765;BME280;30484;52.382;5.260;2023-01-27T00:24:45;102685.91;;;8.64;100.00
44765;BME280;30484;52.382;5.260;2023-01-27T00:27:15;102701.66;;;8.83;100.00
44765;BME280;30484;52.382;5.260;2023-01-27T00:29:44;102693.16;;;8.51;100.00
44765;BME280;30484;52.382;5.260;2023-01-27T00:32:12;102696.69;;;8.52;100.00
44765;BME280;30484;52.382;5.260;2023-01-27T00:34:58;102706.97;;;8.84;100.00
44765;BME280;30484;52.382;5.260;2023-01-27T00:37:26;102710.47;;;8.89;100.00
44765;BME280;30484;52.382;5.260;2023-01-27T00:39:55;102702.75;;;8.66;100.00
44765;BME280;30484;52.382;5.260;2023-01-27T00:42:25;102702.72;;;8.68;100.00
44765;BME280;30484;52.382;5.260;2023-01-27T00:44:53;102713.94;;;8.94;100.00
44765;BME280;30484;52.382;5.260;2023-01-27T00:47:39;102712.69;;;8.52;100.00
44765;BME280;30484;52.382;5.260;2023-01-27T00:50:09;102710.25;;;9.03;100.00
44765;BME280;30484;52.382;5.260;2023-01-27T00:52:38;102709.31;;;8.34;100.00
44765;BME280;30484;52.382;5.260;2023-01-27T00:55:07;102714.06;;;8.87;100.00
44765;BME280;30484;52.382;5.260;2023-01-27T00:57:38;102714.06;;;8.85;100.00
44765;BME280;30484;52.382;5.260;2023-01-27T01:00:08;102710.63;;;8.75;100.00
44765;BME280;30484;52.382;5.260;2023-01-27T01:02:38;102713.50;;;8.58;100.00
44765;BME280;30484;52.382;5.260;2023-01-27T01:05:07;102714.03;;;8.88;100.00
44765;BME280;30484;52.382;5.260;2023-01-27T01:07:37;102708.56;;;8.96;100.00
44765;BME280;30484;52.382;5.260;2023-01-27T01:10:07;102717.72;;;8.76;100.00
44765;BME280;30484;52.382;5.260;2023-01-27T01:12:37;102713.72;;;9.11;100.00
44765;BME280;30484;52.382;5.260;2023-01-27T01:15:07;102727.13;;;9.07;100.00
44765;BME280;30484;52.382;5.260;2023-01-27T01:17:35;102728.19;;;8.90;100.00
44765;BME280;30484;52.382;5.260;2023-01-27T01:20:05;102726.72;;;8.66;100.00
44765;BME280;30484;52.382;5.260;2023-01-27T01:22:33;102728.38;;;8.79;100.00
44765;BME280;30484;52.382;5.260;2023-01-27T01:25:02;102732.28;;;8.48;100.00
44765;BME280;30484;52.382;5.260;2023-01-27T01:27:31;102735.66;;;8.62;100.00
44765;BME280;30484;52.382;5.260;2023-01-27T01:30:01;102729.25;;;8.78;100.00
44765;BME280;30484;52.382;5.260;2023-01-27T01:32:30;102730.16;;;8.76;100.00
44765;BME280;30484;52.382;5.260;2023-01-27T01:34:58;102736.91;;;9.03;100.00
44765;BME280;30484;52.382;5.260;2023-01-27T01:37:27;102740.94;;;8.68;100.00
44765;BME280;30484;52.382;5.260;2023-01-27T01:39:55;102733.78;;;8.72;100.00
44765;BME280;30484;52.382;5.260;2023-01-27T01:42:24;102722.53;;;8.42;100.00
44765;BME280;30484;52.382;5.260;2023-01-27T01:45:50;102737.38;;;8.66;100.00
44765;BME280;30484;52.382;5.260;2023-01-27T01:48:30;102733.88;;;8.64;100.00
44765;BME280;30484;52.382;5.260;2023-01-27T01:51:06;102741.38;;;8.22;100.00
44765;BME280;30484;52.382;5.260;2023-01-27T01:53:40;102741.28;;;8.34;100.00
44765;BME280;30484;52.382;5.260;2023-01-27T01:56:17;102736.00;;;8.28;100.00
44765;BME280;30484;52.382;5.260;2023-01-27T01:58:48;102743.94;;;8.33;100.00
44765;BME280;30484;52.382;5.260;2023-01-27T02:01:18;102750.22;;;8.27;100.00
44765;BME280;30484;52.382;5.260;2023-01-27T02:03:51;102746.81;;;8.12;100.00
44765;BME280;30484;52.382;5.260;2023-01-27T02:06:21;102744.94;;;8.24;100.00
44765;BME280;30484;52.382;5.260;2023-01-27T02:08:50;102762.69;;;8.22;100.00
44765;BME280;30484;52.382;5.260;2023-01-27T02:11:19;102755.34;;;8.49;100.00
44765;BME280;30484;52.382;5.260;2023-01-27T02:13:48;102768.41;;;8.72;100.00
44765;BME280;30484;52.382;5.260;2023-01-27T02:16:18;102757.00;;;8.59;100.00
44765;BME280;30484;52.382;5.260;2023-01-27T02:18:47;102758.88;;;8.54;100.00
44765;BME280;30484;52.382;5.260;2023-01-27T02:21:17;102763.31;;;8.50;100.00
44765;BME280;30484;52.382;5.260;2023-01-27T02:23:56;102762.28;;;8.67;100.00
44765;BME280;30484;52.382;5.260;2023-01-27T02:26:32;102775.00;;;8.32;100.00
44765;BME280;30484;52.382;5.260;2023-01-27T02:29:05;102755.41;;;8.39;100.00
44765;BME280;30484;52.382;5.260;2023-01-27T02:31:34;102752.75;;;8.39;100.00
44765;BME280;30484;52.382;5.260;2023-01-27T02:34:05;102768.59;;;8.55;100.00
44765;BME280;30484;52.382;5.260;2023-01-27T02:36:38;102753.56;;;8.49;100.00
44765;BME280;30484;52.382;5.260;2023-01-27T02:39:09;102775.81;;;8.46;100.00
44765;BME280;30484;52.382;5.260;2023-01-27T02:41:44;102770.63;;;8.26;100.00
44765;BME280;30484;52.382;5.260;2023-01-27T02:44:13;102770.13;;;8.77;100.00
44765;BME280;30484;52.382;5.260;2023-01-27T02:46:42;102784.66;;;8.49;100.00
44765;BME280;30484;52.382;5.260;2023-01-27T02:49:11;102774.41;;;8.01;100.00
44765;BME280;30484;52.382;5.260;2023-01-27T02:51:40;102773.44;;;8.12;100.00
44765;BME280;30484;52.382;5.260;2023-01-27T02:54:09;102778.78;;;8.09;100.00
44765;BME280;30484;52.382;5.260;2023-01-27T02:56:38;102782.28;;;8.15;100.00
44765;BME280;30484;52.382;5.260;2023-01-27T02:59:08;102781.59;;;7.92;100.00
44765;BME280;30484;52.382;5.260;2023-01-27T03:01:37;102777.13;;;7.96;100.00
44765;BME280;30484;52.382;5.260;2023-01-27T03:04:05;102778.91;;;7.94;100.00
44765;BME280;30484;52.382;5.260;2023-01-27T03:06:35;102778.63;;;8.28;100.00
44765;BME280;30484;52.382;5.260;2023-01-27T03:09:03;102789.41;;;8.12;100.00
44765;BME280;30484;52.382;5.260;2023-01-27T03:11:32;102789.28;;;8.25;100.00
44765;BME280;30484;52.382;5.260;2023-01-27T03:14:19;102781.28;;;8.26;100.00
44765;BME280;30484;52.382;5.260;2023-01-27T03:16:48;102788.56;;;8.06;100.00
44765;BME280;30484;52.382;5.260;2023-01-27T03:19:33;102790.22;;;8.22;100.00
44765;BME280;30484;52.382;5.260;2023-01-27T03:22:02;102795.63;;;8.10;100.00
44765;BME280;30484;52.382;5.260;2023-01-27T03:24:30;102792.00;;;8.19;100.00
44765;BME280;30484;52.382;5.260;2023-01-27T03:26:59;102792.91;;;8.18;100.00
44765;BME280;30484;52.382;5.260;2023-01-27T03:29:29;102790.50;;;7.87;100.00
44765;BME280;30484;52.382;5.260;2023-01-27T03:32:15;102799.34;;;7.89;100.00
44765;BME280;30484;52.382;5.260;2023-01-27T03:34:44;102797.16;;;8.39;100.00
44765;BME280;30484;52.382;5.260;2023-01-27T03:37:14;102798.22;;;8.22;100.00
44765;BME280;30484;52.382;5.260;2023-01-27T03:40:00;102801.97;;;7.92;100.00
44765;BME280;30484;52.382;5.260;2023-01-27T03:42:46;102796.69;;;7.89;100.00
44765;BME280;30484;52.382;5.260;2023-01-27T03:45:35;102809.94;;;7.97;100.00
44765;BME280;30484;52.382;5.260;2023-01-27T03:48:22;102807.19;;;8.09;100.00
44765;BME280;30484;52.382;5.260;2023-01-27T03:50:51;102816.06;;;8.06;100.00
44765;BME280;30484;52.382;5.260;2023-01-27T03:53:20;102815.00;;;8.27;100.00
44765;BME280;30484;52.382;5.260;2023-01-27T03:55:48;102813.16;;;8.37;100.00
44765;BME280;30484;52.382;5.260;2023-01-27T03:58:21;102806.34;;;8.04;100.00
44765;BME280;30484;52.382;5.260;2023-01-27T04:00:53;102813.22;;;8.26;100.00
44765;BME280;30484;52.382;5.260;2023-01-27T04:03:25;102824.97;;;8.02;100.00
44765;BME280;30484;52.382;5.260;2023-01-27T04:06:13;102822.00;;;8.45;100.00
44765;BME280;30484;52.382;5.260;2023-01-27T04:09:00;102818.78;;;8.02;100.00
44765;BME280;30484;52.382;5.260;2023-01-27T04:11:29;102816.06;;;8.06;100.00
44765;BME280;30484;52.382;5.260;2023-01-27T04:14:15;102821.34;;;8.16;100.00
44765;BME280;30484;52.382;5.260;2023-01-27T04:16:46;102826.75;;;8.03;100.00
44765;BME280;30484;52.382;5.260;2023-01-27T04:19:14;102829.34;;;8.14;100.00
44765;BME280;30484;52.382;5.260;2023-01-27T04:21:43;102834.66;;;8.16;100.00
44765;BME280;30484;52.382;5.260;2023-01-27T04:24:12;102828.25;;;8.38;100.00
44765;BME280;30484;52.382;5.260;2023-01-27T04:26:52;102837.09;;;8.46;100.00
44765;BME280;30484;52.382;5.260;2023-01-27T04:29:24;102829.09;;;8.46;100.00
44765;BME280;30484;52.382;5.260;2023-01-27T04:31:56;102831.72;;;8.50;100.00
44765;BME280;30484;52.382;5.260;2023-01-27T04:34:26;102840.59;;;8.49;100.00
44765;BME280;30484;52.382;5.260;2023-01-27T04:36:55;102828.22;;;8.41;100.00
44765;BME280;30484;52.382;5.260;2023-01-27T04:39:24;102830.94;;;8.30;100.00
44765;BME280;30484;52.382;5.260;2023-01-27T04:41:54;102835.38;;;8.32;100.00
44765;BME280;30484;52.382;5.260;2023-01-27T04:44:23;102828.41;;;8.15;100.00
44765;BME280;30484;52.382;5.260;2023-01-27T04:46:55;102832.88;;;8.13;100.00
44765;BME280;30484;52.382;5.260;2023-01-27T04:49:24;102832.81;;;8.19;100.00
44765;BME280;30484;52.382;5.260;2023-01-27T04:51:54;102839.72;;;8.43;100.00
44765;BME280;30484;52.382;5.260;2023-01-27T04:54:22;102841.69;;;8.23;100.00
44765;BME280;30484;52.382;5.260;2023-01-27T04:56:56;102838.97;;;8.29;100.00
44765;BME280;30484;52.382;5.260;2023-01-27T04:59:26;102835.41;;;8.30;100.00
44765;BME280;30484;52.382;5.260;2023-01-27T05:01:56;102839.09;;;8.12;100.00
44765;BME280;30484;52.382;5.260;2023-01-27T05:04:25;102835.44;;;8.27;100.00
44765;BME280;30484;52.382;5.260;2023-01-27T05:06:54;102840.69;;;8.33;100.00
44765;BME280;30484;52.382;5.260;2023-01-27T05:09:23;102840.88;;;8.11;100.00
44765;BME280;30484;52.382;5.260;2023-01-27T05:11:51;102851.28;;;8.39;100.00
44765;BME280;30484;52.382;5.260;2023-01-27T05:14:20;102859.53;;;8.11;100.00
44765;BME280;30484;52.382;5.260;2023-01-27T05:16:49;102851.59;;;8.01;100.00
44765;BME280;30484;52.382;5.260;2023-01-27T05:19:19;102843.91;;;7.56;100.00
44765;BME280;30484;52.382;5.260;2023-01-27T05:21:48;102848.00;;;8.06;100.00
44765;BME280;30484;52.382;5.260;2023-01-27T05:24:16;102855.13;;;8.07;100.00
44765;BME280;30484;52.382;5.260;2023-01-27T05:26:45;102862.13;;;8.22;100.00
44765;BME280;30484;52.382;5.260;2023-01-27T05:29:13;102861.44;;;7.88;100.00
44765;BME280;30484;52.382;5.260;2023-01-27T05:31:42;102867.59;;;7.99;100.00
44765;BME280;30484;52.382;5.260;2023-01-27T05:34:11;102865.56;;;8.35;100.00
44765;BME280;30484;52.382;5.260;2023-01-27T05:36:41;102863.91;;;8.19;100.00
44765;BME280;30484;52.382;5.260;2023-01-27T05:39:10;102863.84;;;8.25;100.00
44765;BME280;30484;52.382;5.260;2023-01-27T05:41:39;102876.16;;;8.40;100.00
44765;BME280;30484;52.382;5.260;2023-01-27T05:44:10;102867.38;;;8.30;100.00
44765;BME280;30484;52.382;5.260;2023-01-27T05:46:40;102874.44;;;8.34;100.00
44765;BME280;30484;52.382;5.260;2023-01-27T05:49:09;102882.53;;;8.20;100.00
44765;BME280;30484;52.382;5.260;2023-01-27T05:51:39;102884.22;;;8.29;100.00
44765;BME280;30484;52.382;5.260;2023-01-27T05:54:09;102895.94;;;8.11;100.00
44765;BME280;30484;52.382;5.260;2023-01-27T05:56:38;102885.41;;;7.86;100.00
44765;BME280;30484;52.382;5.260;2023-01-27T05:59:09;102888.97;;;7.90;100.00
44765;BME280;30484;52.382;5.260;2023-01-27T06:01:38;102894.84;;;8.32;100.00
44765;BME280;30484;52.382;5.260;2023-01-27T06:04:08;102887.78;;;8.31;100.00
44765;BME280;30484;52.382;5.260;2023-01-27T06:06:37;102886.88;;;8.32;100.00
44765;BME280;30484;52.382;5.260;2023-01-27T06:09:05;102883.25;;;8.45;100.00
44765;BME280;30484;52.382;5.260;2023-01-27T06:11:35;102887.13;;;8.00;100.00
44765;BME280;30484;52.382;5.260;2023-01-27T06:14:04;102896.03;;;7.95;100.00
44765;BME280;30484;52.382;5.260;2023-01-27T06:16:33;102894.13;;;8.13;100.00
44765;BME280;30484;52.382;5.260;2023-01-27T06:19:01;102900.19;;;8.35;100.00
44765;BME280;30484;52.382;5.260;2023-01-27T06:21:30;102904.97;;;7.85;100.00
44765;BME280;30484;52.382;5.260;2023-01-27T06:23:59;102900.41;;;8.03;100.00
44765;BME280;30484;52.382;5.260;2023-01-27T06:26:27;102899.50;;;8.01;100.00
44765;BME280;30484;52.382;5.260;2023-01-27T06:28:57;102912.88;;;7.94;100.00
44765;BME280;30484;52.382;5.260;2023-01-27T06:31:26;102902.44;;;7.56;100.00
44765;BME280;30484;52.382;5.260;2023-01-27T06:33:54;102894.25;;;7.94;100.00
44765;BME280;30484;52.382;5.260;2023-01-27T06:36:23;102899.59;;;7.93;100.00
44765;BME280;30484;52.382;5.260;2023-01-27T06:38:52;102914.81;;;7.66;100.00
44765;BME280;30484;52.382;5.260;2023-01-27T06:41:20;102898.94;;;7.46;100.00
44765;BME280;30484;52.382;5.260;2023-01-27T06:43:48;102913.91;;;7.70;100.00
44765;BME280;30484;52.382;5.260;2023-01-27T06:46:18;102904.06;;;7.85;100.00
44765;BME280;30484;52.382;5.260;2023-01-27T06:48:47;102907.69;;;7.70;100.00
44765;BME280;30484;52.382;5.260;2023-01-27T06:51:15;102896.22;;;7.60;100.00
44765;BME280;30484;52.382;5.260;2023-01-27T06:53:44;102909.44;;;7.77;100.00
44765;BME280;30484;52.382;5.260;2023-01-27T06:56:12;102897.97;;;7.58;100.00
44765;BME280;30484;52.382;5.260;2023-01-27T06:58:43;102907.78;;;7.54;100.00
44765;BME280;30484;52.382;5.260;2023-01-27T07:01:12;102905.94;;;7.67;100.00
44765;BME280;30484;52.382;5.260;2023-01-27T07:03:42;102910.53;;;7.23;100.00
44765;BME280;30484;52.382;5.260;2023-01-27T07:06:11;102905.16;;;7.37;100.00
44765;BME280;30484;52.382;5.260;2023-01-27T07:08:41;102907.03;;;7.11;100.00
44765;BME280;30484;52.382;5.260;2023-01-27T07:11:11;102917.53;;;7.51;100.00
44765;BME280;30484;52.382;5.260;2023-01-27T07:13:40;102926.25;;;7.81;100.00
44765;BME280;30484;52.382;5.260;2023-01-27T07:16:14;102924.53;;;7.73;100.00
44765;BME280;30484;52.382;5.260;2023-01-27T07:18:44;102940.44;;;7.83;100.00
44765;BME280;30484;52.382;5.260;2023-01-27T07:21:12;102936.03;;;7.72;100.00
44765;BME280;30484;52.382;5.260;2023-01-27T07:23:41;102949.31;;;7.85;100.00
44765;BME280;30484;52.382;5.260;2023-01-27T07:26:10;102946.88;;;7.26;100.00
44765;BME280;30484;52.382;5.260;2023-01-27T07:28:51;102953.00;;;7.54;100.00
44765;BME280;30484;52.382;5.260;2023-01-27T07:31:19;102946.72;;;7.74;100.00
44765;BME280;30484;52.382;5.260;2023-01-27T07:33:50;102949.50;;;7.31;100.00
44765;BME280;30484;52.382;5.260;2023-01-27T07:36:19;102965.47;;;7.38;100.00
44765;BME280;30484;52.382;5.260;2023-01-27T07:38:49;102943.22;;;7.55;100.00
44765;BME280;30484;52.382;5.260;2023-01-27T07:41:17;102953.03;;;7.48;100.00
44765;BME280;30484;52.382;5.260;2023-01-27T07:43:47;102952.09;;;7.49;100.00
44765;BME280;30484;52.382;5.260;2023-01-27T07:46:18;102945.94;;;7.38;100.00
44765;BME280;30484;52.382;5.260;2023-01-27T07:48:47;102953.75;;;7.83;100.00
44765;BME280;30484;52.382;5.260;2023-01-27T07:51:17;102963.56;;;7.70;100.00
44765;BME280;30484;52.382;5.260;2023-01-27T07:53:46;102952.94;;;7.71;100.00
44765;BME280;30484;52.382;5.260;2023-01-27T07:56:14;102954.66;;;7.72;100.00
44765;BME280;30484;52.382;5.260;2023-01-27T07:58:43;102954.72;;;7.63;100.00
44765;BME280;30484;52.382;5.260;2023-01-27T08:01:12;102963.50;;;7.81;100.00
44765;BME280;30484;52.382;5.260;2023-01-27T08:03:41;102955.66;;;7.50;100.00
44765;BME280;30484;52.382;5.260;2023-01-27T08:06:11;102960.03;;;7.68;100.00
44765;BME280;30484;52.382;5.260;2023-01-27T08:08:42;102947.72;;;7.37;100.00
44765;BME280;30484;52.382;5.260;2023-01-27T08:11:16;102964.47;;;7.67;100.00
44765;BME280;30484;52.382;5.260;2023-01-27T08:13:48;102962.69;;;7.74;100.00
44765;BME280;30484;52.382;5.260;2023-01-27T08:16:17;102962.72;;;7.52;100.00
44765;BME280;30484;52.382;5.260;2023-01-27T08:18:47;102971.63;;;7.47;100.00
44765;BME280;30484;52.382;5.260;2023-01-27T08:21:16;102963.66;;;7.50;100.00
44765;BME280;30484;52.382;5.260;2023-01-27T08:23:46;102960.94;;;7.60;100.00
44765;BME280;30484;52.382;5.260;2023-01-27T08:26:15;102966.16;;;7.82;100.00
44765;BME280;30484;52.382;5.260;2023-01-27T08:28:44;102971.47;;;7.82;100.00
44765;BME280;30484;52.382;5.260;2023-01-27T08:31:15;102967.13;;;7.67;100.00
44765;BME280;30484;52.382;5.260;2023-01-27T08:33:56;102967.94;;;7.91;100.00
44765;BME280;30484;52.382;5.260;2023-01-27T08:36:25;102967.81;;;8.06;100.00
44765;BME280;30484;52.382;5.260;2023-01-27T08:38:55;102966.09;;;7.99;100.00
44765;BME280;30484;52.382;5.260;2023-01-27T08:41:25;102959.91;;;7.95;100.00
44765;BME280;30484;52.382;5.260;2023-01-27T08:43:55;102965.31;;;7.78;100.00
44765;BME280;30484;52.382;5.260;2023-01-27T08:46:28;102978.56;;;7.85;100.00
44765;BME280;30484;52.382;5.260;2023-01-27T08:48:56;102979.38;;;8.02;100.00
44765;BME280;30484;52.382;5.260;2023-01-27T08:51:25;102982.03;;;8.07;100.00
44765;BME280;30484;52.382;5.260;2023-01-27T08:53:56;102976.66;;;8.15;100.00
44765;BME280;30484;52.382;5.260;2023-01-27T08:56:25;102974.03;;;8.07;100.00
44765;BME280;30484;52.382;5.260;2023-01-27T08:58:54;102965.94;;;8.27;100.00
44765;BME280;30484;52.382;5.260;2023-01-27T09:01:26;102980.91;;;8.50;100.00
44765;BME280;30484;52.382;5.260;2023-01-27T09:03:55;102975.44;;;8.68;100.00
44765;BME280;30484;52.382;5.260;2023-01-27T09:06:23;102968.34;;;8.66;100.00
44765;BME280;30484;52.382;5.260;2023-01-27T09:08:52;102976.13;;;8.89;100.00
44765;BME280;30484;52.382;5.260;2023-01-27T09:11:48;102982.34;;;8.91;100.00
44765;BME280;30484;52.382;5.260;2023-01-27T09:14:17;102991.38;;;8.74;100.00
44765;BME280;30484;52.382;5.260;2023-01-27T09:16:47;102979.84;;;8.74;100.00
44765;BME280;30484;52.382;5.260;2023-01-27T09:19:16;102991.47;;;8.62;100.00
44765;BME280;30484;52.382;5.260;2023-01-27T09:21:45;102992.06;;;8.95;100.00
44765;BME280;30484;52.382;5.260;2023-01-27T09:24:16;102996.38;;;9.11;100.00
44765;BME280;30484;52.382;5.260;2023-01-27T09:26:48;102995.66;;;8.95;100.00
44765;BME280;30484;52.382;5.260;2023-01-27T09:29:17;103003.84;;;8.72;100.00
44765;BME280;30484;52.382;5.260;2023-01-27T09:31:46;102999.94;;;9.10;100.00
44765;BME280;30484;52.382;5.260;2023-01-27T09:34:15;102992.69;;;9.25;100.00
44765;BME280;30484;52.382;5.260;2023-01-27T09:36:50;103003.47;;;9.15;100.00
44765;BME280;30484;52.382;5.260;2023-01-27T09:39:22;103013.50;;;8.86;100.00
44765;BME280;30484;52.382;5.260;2023-01-27T09:42:20;103005.22;;;9.17;100.00
44765;BME280;30484;52.382;5.260;2023-01-27T09:48:21;103001.19;;;9.62;100.00
44765;BME280;30484;52.382;5.260;2023-01-27T09:50:56;102999.22;;;9.77;100.00
44765;BME280;30484;52.382;5.260;2023-01-27T09:54:12;103003.34;;;10.02;100.00
44765;BME280;30484;52.382;5.260;2023-01-27T09:56:54;102990.59;;;10.23;100.00
44765;BME280;30484;52.382;5.260;2023-01-27T09:59:43;102995.16;;;10.16;100.00
44765;BME280;30484;52.382;5.260;2023-01-27T10:02:30;102993.16;;;10.31;100.00
44765;BME280;30484;52.382;5.260;2023-01-27T10:05:24;102995.66;;;10.46;100.00
44765;BME280;30484;52.382;5.260;2023-01-27T10:08:21;102998.50;;;10.34;100.00
44765;BME280;30484;52.382;5.260;2023-01-27T10:11:08;102993.53;;;10.67;100.00
44765;BME280;30484;52.382;5.260;2023-01-27T10:13:52;102999.97;;;10.55;100.00
44765;BME280;30484;52.382;5.260;2023-01-27T10:16:47;102997.19;;;9.97;100.00
44765;BME280;30484;52.382;5.260;2023-01-27T10:19:38;102996.66;;;10.39;100.00
44765;BME280;30484;52.382;5.260;2023-01-27T10:22:18;103003.97;;;10.82;100.00
44765;BME280;30484;52.382;5.260;2023-01-27T10:25:04;103003.63;;;10.49;100.00
44765;BME280;30484;52.382;5.260;2023-01-27T10:27:37;103012.63;;;10.98;100.00
44765;BME280;30484;52.382;5.260;2023-01-27T10:30:14;103001.16;;;10.90;100.00
44765;BME280;30484;52.382;5.260;2023-01-27T10:32:55;103000.38;;;11.35;100.00
44765;BME280;30484;52.382;5.260;2023-01-27T10:35:34;103015.84;;;11.66;100.00
44765;BME280;30484;52.382;5.260;2023-01-27T10:38:15;103005.00;;;11.72;100.00
44765;BME280;30484;52.382;5.260;2023-01-27T10:40:55;102996.22;;;12.09;100.00
44765;BME280;30484;52.382;5.260;2023-01-27T10:43:37;103006.88;;;11.67;100.00
44765;BME280;30484;52.382;5.260;2023-01-27T10:46:23;103007.34;;;11.44;100.00
44765;BME280;30484;52.382;5.260;2023-01-27T10:49:02;103012.00;;;11.79;100.00
44765;BME280;30484;52.382;5.260;2023-01-27T10:51:36;103019.38;;;11.21;100.00
44765;BME280;30484;52.382;5.260;2023-01-27T10:54:11;103014.16;;;11.13;100.00
44765;BME280;30484;52.382;5.260;2023-01-27T10:56:46;103004.38;;;11.12;100.00
44765;BME280;30484;52.382;5.260;2023-01-27T10:59:25;103002.47;;;10.67;100.00
44765;BME280;30484;52.382;5.260;2023-01-27T11:02:02;103000.44;;;11.32;100.00
44765;BME280;30484;52.382;5.260;2023-01-27T11:04:38;103005.59;;;11.41;100.00
44765;BME280;30484;52.382;5.260;2023-01-27T11:07:14;103001.22;;;10.87;100.00
44765;BME280;30484;52.382;5.260;2023-01-27T11:09:52;102994.28;;;10.75;100.00
44765;BME280;30484;52.382;5.260;2023-01-27T11:12:29;102994.81;;;10.97;100.00
44765;BME280;30484;52.382;5.260;2023-01-27T11:14:58;102988.84;;;10.81;100.00
44765;BME280;30484;52.382;5.260;2023-01-27T11:17:36;102995.41;;;10.62;100.00
44765;BME280;30484;52.382;5.260;2023-01-27T11:20:22;102996.66;;;10.39;100.00
44765;BME280;30484;52.382;5.260;2023-01-27T11:22:57;102994.75;;;10.46;100.00
44765;BME280;30484;52.382;5.260;2023-01-27T11:25:42;102983.53;;;10.78;100.00
44765;BME280;30484;52.382;5.260;2023-01-27T11:28:24;102990.66;;;10.79;100.00
44765;BME280;30484;52.382;5.260;2023-01-27T11:31:03;102994.69;;;10.52;100.00
44765;BME280;30484;52.382;5.260;2023-01-27T11:33:48;102994.13;;;10.27;100.00
44765;BME280;30484;52.382;5.260;2023-01-27T11:36:26;102994.13;;;10.27;100.00
44765;BME280;30484;52.382;5.260;2023-01-27T11:38:56;102986.94;;;10.32;100.00
44765;BME280;30484;52.382;5.260;2023-01-27T11:41:25;102994.81;;;10.43;100.00
44765;BME280;30484;52.382;5.260;2023-01-27T11:43:54;102993.97;;;10.39;100.00
44765;BME280;30484;52.382;5.260;2023-01-27T11:46:24;102993.91;;;10.44;100.00
44765;BME280;30484;52.382;5.260;2023-01-27T11:48:57;102988.59;;;10.41;100.00
44765;BME280;30484;52.382;5.260;2023-01-27T11:51:39;102982.56;;;10.26;100.00
44765;BME280;30484;52.382;5.260;2023-01-27T11:54:16;102980.94;;;10.14;100.00
44765;BME280;30484;52.382;5.260;2023-01-27T11:56:48;102972.88;;;10.19;100.00
44765;BME280;30484;52.382;5.260;2023-01-27T11:59:22;102970.16;;;10.22;100.00
44765;BME280;30484;52.382;5.260;2023-01-27T12:01:58;102968.63;;;10.02;100.00
44765;BME280;30484;52.382;5.260;2023-01-27T12:04:43;102969.13;;;9.64;100.00
44765;BME280;30484;52.382;5.260;2023-01-27T12:07:29;102968.59;;;10.04;100.00
44765;BME280;30484;52.382;5.260;2023-01-27T12:10:01;102957.28;;;10.50;100.00
44765;BME280;30484;52.382;5.260;2023-01-27T12:12:31;102952.03;;;10.43;100.00
44765;BME280;30484;52.382;5.260;2023-01-27T12:15:14;102957.31;;;10.49;100.00
44765;BME280;30484;52.382;5.260;2023-01-27T12:17:46;102951.38;;;10.27;100.00
44765;BME280;30484;52.382;5.260;2023-01-27T12:20:30;102954.63;;;9.87;100.00
44765;BME280;30484;52.382;5.260;2023-01-27T12:23:12;102954.75;;;10.40;100.00
44765;BME280;30484;52.382;5.260;2023-01-27T12:25:45;102965.47;;;10.38;100.00
44765;BME280;30484;52.382;5.260;2023-01-27T12:28:23;102961.53;;;10.00;100.00
44765;BME280;30484;52.382;5.260;2023-01-27T12:31:01;102962.19;;;10.16;100.00
44765;BME280;30484;52.382;5.260;2023-01-27T12:33:38;102962.88;;;10.32;100.00
44765;BME280;30484;52.382;5.260;2023-01-27T12:36:14;102956.25;;;9.97;100.00
44765;BME280;30484;52.382;5.260;2023-01-27T12:38:51;102956.63;;;9.66;100.00
44765;BME280;30484;52.382;5.260;2023-01-27T12:41:26;102956.28;;;9.94;100.00
44765;BME280;30484;52.382;5.260;2023-01-27T12:43:59;102958.06;;;9.95;100.00
44765;BME280;30484;52.382;5.260;2023-01-27T12:46:40;102956.84;;;10.17;100.00
44765;BME280;30484;52.382;5.260;2023-01-27T12:49:12;102962.38;;;9.33;100.00
44765;BME280;30484;52.382;5.260;2023-01-27T12:51:50;102950.78;;;10.08;100.00
44765;BME280;30484;52.382;5.260;2023-01-27T12:54:25;102951.81;;;9.96;100.00
44765;BME280;30484;52.382;5.260;2023-01-27T12:56:59;102949.78;;;9.46;100.00
44765;BME280;30484;52.382;5.260;2023-01-27T12:59:29;102945.69;;;9.89;100.00
44765;BME280;30484;52.382;5.260;2023-01-27T13:02:02;102947.69;;;9.72;100.00
44765;BME280;30484;52.382;5.260;2023-01-27T13:04:44;102947.50;;;9.85;100.00
44765;BME280;30484;52.382;5.260;2023-01-27T13:07:18;102950.97;;;9.94;100.00
44765;BME280;30484;52.382;5.260;2023-01-27T13:09:53;102951.06;;;9.88;100.00
44765;BME280;30484;52.382;5.260;2023-01-27T13:12:26;102951.97;;;9.85;100.00
44765;BME280;30484;52.382;5.260;2023-01-27T13:14:57;102938.66;;;9.80;100.00
44765;BME280;30484;52.382;5.260;2023-01-27T13:17:34;102954.22;;;9.46;100.00
44765;BME280;30484;52.382;5.260;2023-01-27T13:20:16;102945.91;;;9.72;100.00
44765;BME280;30484;52.382;5.260;2023-01-27T13:22:50;102952.38;;;9.51;100.00